createdAt,value
2023-01-23T00:01:36.479Z,4.35
2023-01-23T00:04:05.957Z,4.53
2023-01-23T00:06:35.399Z,4.40
2023-01-23T00:09:03.519Z,4.15
2023-01-23T00:11:32.122Z,5.40
2023-01-23T00:14:01.682Z,5.00
2023-01-23T00:16:31.869Z,4.97
2023-01-23T00:19:00.662Z,4.82
2023-01-23T00:21:30.506Z,4.25
2023-01-23T00:24:02.489Z,4.75
2023-01-23T00:26:33.192Z,4.80
2023-01-23T00:29:01.546Z,4.25
2023-01-23T00:31:33.840Z,4.75
2023-01-23T00:34:04.235Z,4.37
2023-01-23T00:36:34.356Z,5.55
2023-01-23T00:39:07.325Z,5.43
2023-01-23T00:41:35.529Z,5.07
2023-01-23T00:44:05.717Z,5.07
2023-01-23T00:46:34.918Z,4.47
2023-01-23T00:49:04.355Z,4.68
2023-01-23T00:51:32.720Z,5.20
2023-01-23T00:54:01.203Z,4.40
2023-01-23T00:56:31.009Z,4.15
2023-01-23T00:58:59.115Z,5.18
2023-01-23T01:01:28.987Z,4.93
2023-01-23T01:03:57.421Z,4.82
2023-01-23T01:06:25.791Z,4.07
2023-01-23T01:08:53.872Z,5.05
2023-01-23T01:11:24.107Z,5.70
2023-01-23T01:13:54.115Z,5.50
2023-01-23T01:16:24.348Z,5.00
2023-01-23T01:18:52.605Z,4.32
2023-01-23T01:21:20.832Z,5.03
2023-01-23T01:23:49.098Z,4.82
2023-01-23T01:26:18.402Z,4.15
2023-01-23T01:28:46.448Z,5.12
2023-01-23T01:31:17.822Z,4.68
2023-01-23T01:33:45.979Z,5.20
2023-01-23T01:36:16.917Z,5.32
2023-01-23T01:38:47.989Z,5.68
2023-01-23T01:41:17.486Z,4.78
2023-01-23T01:43:46.609Z,5.22
2023-01-23T01:46:22.186Z,5.00
2023-01-23T01:49:04.125Z,5.10
2023-01-23T01:51:34.648Z,4.78
2023-01-23T01:54:10.540Z,5.57
2023-01-23T01:56:42.202Z,4.75
2023-01-23T01:59:12.231Z,5.15
2023-01-23T02:01:44.233Z,5.07
2023-01-23T02:04:12.837Z,5.30
2023-01-23T02:06:41.828Z,5.10
2023-01-23T02:09:15.973Z,5.97
2023-01-23T02:11:45.274Z,5.53
2023-01-23T02:14:14.577Z,5.30
2023-01-23T02:16:50.447Z,5.40
2023-01-23T02:19:34.607Z,5.47
2023-01-23T02:22:11.859Z,5.28
2023-01-23T02:24:45.073Z,5.50
2023-01-23T02:27:14.472Z,6.05
2023-01-23T02:29:44.378Z,6.10
2023-01-23T02:32:12.850Z,4.85
2023-01-23T02:34:42.567Z,5.55
2023-01-23T02:37:11.152Z,5.90
2023-01-23T02:39:39.646Z,5.40
2023-01-23T02:42:09.432Z,5.97
2023-01-23T02:44:39.613Z,5.50
2023-01-23T02:47:12.348Z,4.62
2023-01-23T02:49:42.854Z,5.45
2023-01-23T02:52:11.282Z,4.47
2023-01-23T02:54:40.309Z,5.25
2023-01-23T02:57:09.100Z,5.80
2023-01-23T02:59:54.802Z,5.07
2023-01-23T03:02:26.520Z,5.53
2023-01-23T03:04:54.836Z,5.60
2023-01-23T03:07:23.149Z,5.00
2023-01-23T03:09:51.180Z,5.53
2023-01-23T03:12:19.238Z,6.30
2023-01-23T03:14:48.547Z,6.75
2023-01-23T03:17:16.608Z,6.03
2023-01-23T03:19:46.118Z,6.30
2023-01-23T03:22:16.056Z,5.68
2023-01-23T03:24:44.166Z,6.07
2023-01-23T03:27:12.309Z,7.00
2023-01-23T03:29:58.307Z,6.37
2023-01-23T03:32:26.813Z,6.00
2023-01-23T03:34:57.453Z,7.43
2023-01-23T03:37:25.608Z,6.12
2023-01-23T03:40:12.728Z,6.15
2023-01-23T03:42:41.321Z,5.97
2023-01-23T03:45:10.904Z,6.47
2023-01-23T03:47:39.069Z,5.95
2023-01-23T03:50:10.626Z,6.82
2023-01-23T03:52:39.008Z,5.07
2023-01-23T03:55:07.991Z,5.50
2023-01-23T03:57:36.956Z,6.28
2023-01-23T04:00:07.068Z,5.15
2023-01-23T04:02:41.828Z,6.37
2023-01-23T04:05:12.536Z,5.45
2023-01-23T04:07:40.925Z,5.82
2023-01-23T04:10:13.025Z,5.78
2023-01-23T04:12:43.445Z,6.20
2023-01-23T04:15:13.371Z,5.90
2023-01-23T04:17:42.491Z,6.32
2023-01-23T04:20:13.495Z,6.50
2023-01-23T04:22:42.676Z,5.75
2023-01-23T04:25:11.567Z,5.57
2023-01-23T04:27:39.725Z,6.53
2023-01-23T04:30:09.764Z,6.32
2023-01-23T04:32:38.348Z,5.20
2023-01-23T04:35:07.899Z,6.60
2023-01-23T04:37:40.540Z,6.53
2023-01-23T04:40:11.491Z,6.72
2023-01-23T04:42:41.295Z,6.25
2023-01-23T04:45:10.838Z,5.15
2023-01-23T04:47:47.698Z,6.60
2023-01-23T04:50:16.522Z,5.90
2023-01-23T04:52:46.634Z,5.68
2023-01-23T04:55:14.940Z,6.05
2023-01-23T04:57:43.861Z,6.15
2023-01-23T05:00:14.483Z,5.85
2023-01-23T05:02:42.579Z,6.53
2023-01-23T05:05:10.962Z,6.25
2023-01-23T05:07:39.372Z,6.55
2023-01-23T05:10:10.960Z,6.78
2023-01-23T05:12:39.412Z,6.47
2023-01-23T05:15:08.859Z,6.60
2023-01-23T05:17:37.603Z,6.57
2023-01-23T05:20:07.737Z,6.18
2023-01-23T05:22:37.543Z,7.85
2023-01-23T05:25:06.940Z,6.55
2023-01-23T05:27:36.482Z,6.43
2023-01-23T05:30:04.889Z,6.22
2023-01-23T05:32:33.775Z,6.22
2023-01-23T05:35:03.474Z,6.85
2023-01-23T05:37:31.778Z,6.85
2023-01-23T05:40:00.803Z,7.05
2023-01-23T05:42:29.419Z,7.60
2023-01-23T05:44:59.637Z,6.50
2023-01-23T05:47:28.459Z,6.60
2023-01-23T05:49:56.825Z,7.15
2023-01-23T05:52:25.717Z,6.80
2023-01-23T05:54:54.154Z,5.97
2023-01-23T05:57:22.696Z,6.60
2023-01-23T05:59:52.738Z,7.05
2023-01-23T06:02:22.921Z,7.22
2023-01-23T06:04:55.725Z,7.18
2023-01-23T06:07:24.413Z,7.32
2023-01-23T06:09:52.932Z,6.50
2023-01-23T06:12:21.220Z,6.22
2023-01-23T06:14:49.405Z,6.62
2023-01-23T06:17:17.731Z,6.12
2023-01-23T06:19:48.165Z,7.05
2023-01-23T06:22:16.891Z,6.93
2023-01-23T06:24:47.706Z,7.12
2023-01-23T06:27:15.915Z,6.28
2023-01-23T06:29:44.061Z,6.57
2023-01-23T06:32:12.260Z,6.72
2023-01-23T06:34:40.841Z,6.50
2023-01-23T06:37:10.739Z,7.07
2023-01-23T06:39:41.338Z,5.80
2023-01-23T06:42:10.767Z,5.75
2023-01-23T06:44:39.168Z,6.90
2023-01-23T06:47:07.391Z,6.85
2023-01-23T06:49:35.723Z,6.40
2023-01-23T06:52:05.211Z,7.07
2023-01-23T06:54:35.978Z,6.15
2023-01-23T06:57:05.585Z,6.05
2023-01-23T06:59:33.817Z,5.93
2023-01-23T07:02:02.797Z,5.90
2023-01-23T07:04:33.515Z,6.35
2023-01-23T07:07:01.589Z,5.30
2023-01-23T07:09:30.619Z,5.45
2023-01-23T07:12:00.862Z,5.65
2023-01-23T07:14:29.519Z,6.35
2023-01-23T07:16:57.928Z,6.32
2023-01-23T07:19:26.862Z,6.20
2023-01-23T07:21:55.277Z,5.62
2023-01-23T07:24:23.273Z,6.55
2023-01-23T07:26:51.507Z,7.12
2023-01-23T07:29:20.920Z,5.90
2023-01-23T07:31:49.135Z,5.75
2023-01-23T07:34:17.425Z,7.05
2023-01-23T07:36:45.482Z,5.80
2023-01-23T07:39:13.576Z,7.45
2023-01-23T07:41:43.056Z,6.60
2023-01-23T07:44:17.804Z,6.32
2023-01-23T07:46:48.915Z,6.20
2023-01-23T07:49:17.029Z,6.68
2023-01-23T07:51:45.304Z,6.87
2023-01-23T07:54:13.393Z,7.62
2023-01-23T07:56:41.479Z,6.15
2023-01-23T07:59:09.994Z,6.87
2023-01-23T08:01:37.954Z,6.57
2023-01-23T08:04:07.545Z,6.15
2023-01-23T08:06:36.573Z,6.85
2023-01-23T08:09:04.762Z,6.18
2023-01-23T08:11:34.386Z,7.57
2023-01-23T08:14:02.782Z,6.70
2023-01-23T08:16:30.908Z,7.18
2023-01-23T08:18:59.358Z,5.78
2023-01-23T08:21:28.764Z,6.10
2023-01-23T08:23:56.742Z,6.70
2023-01-23T08:26:25.022Z,6.93
2023-01-23T08:28:53.116Z,6.82
2023-01-23T08:31:21.352Z,6.72
2023-01-23T08:33:49.555Z,7.03
2023-01-23T08:36:17.590Z,7.72
2023-01-23T08:38:46.903Z,6.47
2023-01-23T08:41:15.316Z,6.55
2023-01-23T08:43:43.436Z,7.10
2023-01-23T08:46:11.877Z,7.32
2023-01-23T08:48:40.499Z,6.35
2023-01-23T08:51:09.992Z,7.05
2023-01-23T08:53:38.266Z,7.18
2023-01-23T08:56:09.708Z,7.37
2023-01-23T08:58:37.800Z,6.65
2023-01-23T09:01:06.283Z,7.00
2023-01-23T09:03:34.685Z,6.65
2023-01-23T09:06:02.970Z,7.07
2023-01-23T09:08:31.334Z,7.18
2023-01-23T09:11:02.093Z,7.50
2023-01-23T09:13:31.989Z,8.00
2023-01-23T09:16:00.190Z,7.85
2023-01-23T09:18:28.379Z,7.20
2023-01-23T09:20:56.973Z,7.47
2023-01-23T09:23:25.752Z,7.53
2023-01-23T09:25:53.706Z,7.75
2023-01-23T09:28:21.666Z,6.05
2023-01-23T09:30:51.414Z,7.95
2023-01-23T09:33:24.698Z,7.40
2023-01-23T09:35:53.069Z,7.70
2023-01-23T09:38:21.193Z,7.93
2023-01-23T09:40:52.035Z,7.78
2023-01-23T09:43:25.403Z,7.65
2023-01-23T09:46:04.242Z,7.05
2023-01-23T09:48:39.951Z,7.82
2023-01-23T09:51:18.838Z,7.35
2023-01-23T09:53:47.468Z,6.80
2023-01-23T09:56:28.741Z,7.00
2023-01-23T09:59:04.600Z,8.07
2023-01-23T10:01:34.032Z,7.50
2023-01-23T10:04:03.321Z,7.97
2023-01-23T10:06:34.574Z,7.60
2023-01-23T10:09:25.797Z,7.18
2023-01-23T10:12:02.756Z,7.80
2023-01-23T10:14:52.126Z,7.90
2023-01-23T10:17:28.486Z,8.02
2023-01-23T10:20:15.729Z,7.72
2023-01-23T10:22:52.305Z,8.52
2023-01-23T10:25:23.643Z,6.30
2023-01-23T10:27:54.281Z,8.35
2023-01-23T10:30:27.736Z,7.87
2023-01-23T10:33:00.857Z,8.80
2023-01-23T10:35:36.660Z,7.80
2023-01-23T10:38:13.184Z,7.43
2023-01-23T10:41:00.093Z,8.23
2023-01-23T10:43:28.347Z,8.30
2023-01-23T10:45:56.592Z,7.50
2023-01-23T10:48:39.469Z,6.95
2023-01-23T10:51:26.999Z,6.60
2023-01-23T10:54:06.178Z,7.10
2023-01-23T10:56:37.649Z,7.28
2023-01-23T10:59:08.791Z,8.95
2023-01-23T11:01:40.315Z,7.65
2023-01-23T11:04:18.387Z,8.27
2023-01-23T11:07:02.957Z,8.77
2023-01-23T11:09:32.104Z,7.30
2023-01-23T11:12:01.802Z,7.85
2023-01-23T11:14:30.239Z,8.18
2023-01-23T11:17:14.122Z,8.85
2023-01-23T11:19:46.442Z,8.65
2023-01-23T11:22:40.919Z,8.57
2023-01-23T11:25:29.269Z,9.23
2023-01-23T11:27:59.384Z,7.97
2023-01-23T11:30:46.187Z,8.38
2023-01-23T11:33:19.884Z,8.85
2023-01-23T11:35:59.841Z,8.73
2023-01-23T11:38:32.400Z,7.70
2023-01-23T11:41:12.996Z,8.93
2023-01-23T11:43:42.232Z,7.05
2023-01-23T11:46:35.222Z,8.85
2023-01-23T11:49:17.206Z,8.55
2023-01-23T11:51:53.556Z,8.52
2023-01-23T11:55:04.544Z,8.57
2023-01-23T11:57:41.518Z,9.07
2023-01-23T12:00:25.642Z,8.88
2023-01-23T12:03:24.445Z,9.85
2023-01-23T12:06:20.029Z,8.68
2023-01-23T12:09:00.191Z,9.82
2023-01-23T12:11:37.804Z,8.57
2023-01-23T12:14:15.911Z,10.20
2023-01-23T12:17:08.802Z,9.52
2023-01-23T12:19:56.296Z,8.38
2023-01-23T12:22:32.671Z,8.57
2023-01-23T12:25:15.897Z,9.32
2023-01-23T12:27:46.033Z,9.50
2023-01-23T12:30:46.879Z,9.57
2023-01-23T12:33:33.380Z,8.15
2023-01-23T12:36:16.930Z,8.48
2023-01-23T12:38:52.860Z,8.38
2023-01-23T12:41:36.335Z,10.63
2023-01-23T12:44:12.776Z,8.43
2023-01-23T12:46:47.118Z,10.32
2023-01-23T12:49:26.949Z,9.25
2023-01-23T12:52:01.246Z,9.55
2023-01-23T12:54:38.370Z,10.40
2023-01-23T12:57:10.484Z,9.20
2023-01-23T12:59:57.448Z,10.15
2023-01-23T13:02:34.279Z,9.55
2023-01-23T13:05:13.987Z,9.48
2023-01-23T13:07:52.054Z,9.90
2023-01-23T13:10:48.213Z,11.25
2023-01-23T13:13:19.613Z,11.77
2023-01-23T13:16:04.476Z,10.70
2023-01-23T13:18:52.836Z,11.80
2023-01-23T13:21:38.473Z,10.65
2023-01-23T13:24:49.351Z,10.23
2023-01-23T13:27:48.123Z,10.55
2023-01-23T13:30:43.014Z,10.50
2023-01-23T13:34:06.722Z,9.75
2023-01-23T13:36:38.924Z,9.70
2023-01-23T13:39:27.166Z,9.23
2023-01-23T13:42:45.661Z,10.65
2023-01-23T13:45:31.496Z,9.63
2023-01-23T14:25:03.447Z,9.00
2023-01-23T14:27:51.314Z,8.77
2023-01-23T14:30:26.517Z,9.82
2023-01-23T14:32:56.845Z,8.77
2023-01-23T14:35:27.100Z,9.50
2023-01-23T14:37:58.174Z,9.85
2023-01-23T14:40:33.252Z,9.48
2023-01-23T14:43:07.861Z,10.93
2023-01-23T14:45:37.794Z,11.68
2023-01-23T14:48:15.138Z,10.80
2023-01-23T14:50:43.639Z,9.68
2023-01-23T14:53:17.259Z,10.38
2023-01-23T14:55:49.618Z,10.00
2023-01-23T14:58:23.904Z,8.80
2023-01-23T15:00:54.431Z,10.23
2023-01-23T15:03:38.654Z,9.68
2023-01-23T15:06:10.823Z,9.73
2023-01-23T15:08:39.747Z,9.63
2023-01-23T15:11:12.010Z,10.35
2023-01-23T15:13:51.129Z,9.98
2023-01-23T15:16:21.867Z,10.20
2023-01-23T15:18:59.573Z,9.60
2023-01-23T15:21:31.145Z,9.90
2023-01-23T15:24:16.357Z,8.35
2023-01-23T15:26:45.459Z,9.27
2023-01-23T15:29:19.767Z,8.52
2023-01-23T15:31:51.030Z,9.30
2023-01-23T15:34:24.741Z,8.45
2023-01-23T15:36:56.499Z,9.35
2023-01-23T15:39:27.975Z,8.90
2023-01-23T15:41:58.733Z,9.55
2023-01-23T15:44:29.857Z,9.60
2023-01-23T15:47:01.004Z,9.27
2023-01-23T15:49:31.360Z,9.25
2023-01-23T15:52:02.284Z,9.38
2023-01-23T15:54:34.566Z,8.82
2023-01-23T15:57:08.006Z,8.38
2023-01-23T15:59:37.878Z,9.07
2023-01-23T16:02:29.218Z,7.43
2023-01-23T16:04:56.289Z,7.72
2023-01-23T16:07:26.616Z,9.20
2023-01-23T16:09:56.635Z,8.88
2023-01-23T16:12:29.352Z,8.32
2023-01-23T16:14:58.456Z,7.95
2023-01-23T16:17:26.530Z,7.62
2023-01-23T16:19:55.953Z,8.63
2023-01-23T16:22:29.097Z,8.95
2023-01-23T16:24:58.261Z,8.00
2023-01-23T16:27:27.743Z,9.13
2023-01-23T16:29:56.866Z,9.07
2023-01-23T16:32:25.159Z,9.20
2023-01-23T16:34:53.641Z,8.43
2023-01-23T16:37:23.051Z,9.20
2023-01-23T16:39:51.145Z,10.45
2023-01-23T16:42:22.878Z,9.75
2023-01-23T16:44:51.838Z,9.82
2023-01-23T16:47:20.683Z,9.43
2023-01-23T16:49:54.059Z,9.07
2023-01-23T16:52:27.021Z,8.63
2023-01-23T16:54:55.946Z,7.82
2023-01-23T16:57:25.445Z,9.20
2023-01-23T16:59:56.316Z,7.60
2023-01-23T17:02:30.274Z,7.78
2023-01-23T17:04:58.542Z,9.35
2023-01-23T17:07:28.114Z,7.62
2023-01-23T17:09:56.329Z,6.93
2023-01-23T17:12:29.287Z,8.60
2023-01-23T17:14:58.153Z,8.02
2023-01-23T17:17:30.282Z,8.77
2023-01-23T17:20:01.173Z,8.60
2023-01-23T17:22:35.061Z,8.25
2023-01-23T17:25:03.941Z,7.75
2023-01-23T17:27:38.953Z,7.40
2023-01-23T17:30:16.087Z,7.65
2023-01-23T17:32:47.256Z,8.02
2023-01-23T17:35:21.645Z,8.15
2023-01-23T17:37:51.598Z,7.70
2023-01-23T17:40:20.960Z,7.45
2023-01-23T17:42:49.185Z,7.55
2023-01-23T17:45:19.499Z,7.60
2023-01-23T17:47:50.220Z,7.18
2023-01-23T17:50:20.276Z,8.63
2023-01-23T17:52:51.394Z,7.68
2023-01-23T17:55:21.570Z,8.77
2023-01-23T17:57:50.113Z,8.02
2023-01-23T18:00:20.755Z,8.93
2023-01-23T18:02:58.239Z,7.12
2023-01-23T18:05:27.240Z,9.20
2023-01-23T18:07:56.983Z,8.13
2023-01-23T18:10:29.019Z,7.37
2023-01-23T18:13:09.703Z,7.43
2023-01-23T18:15:43.572Z,7.18
2023-01-23T18:18:23.957Z,6.95
2023-01-23T18:20:54.989Z,7.18
2023-01-23T18:23:27.098Z,7.72
2023-01-23T18:26:04.919Z,6.82
2023-01-23T18:28:42.850Z,9.27
2023-01-23T18:31:15.195Z,9.13
2023-01-23T18:34:11.862Z,7.75
2023-01-23T18:36:58.029Z,7.72
2023-01-23T18:39:43.953Z,7.97
2023-01-23T18:42:17.357Z,8.85
2023-01-23T18:44:53.904Z,7.60
2023-01-23T18:47:22.179Z,9.02
2023-01-23T18:49:52.421Z,9.77
2023-01-23T18:52:25.027Z,9.00
2023-01-23T18:55:03.391Z,10.02
2023-01-23T18:57:51.034Z,8.05
2023-01-23T19:00:24.819Z,8.13
2023-01-23T19:02:56.971Z,8.27
2023-01-23T19:05:30.102Z,8.25
2023-01-23T19:07:59.835Z,7.30
2023-01-23T19:10:46.720Z,8.30
2023-01-23T19:13:20.824Z,6.80
2023-01-23T19:15:58.965Z,7.97
2023-01-23T19:18:44.017Z,6.85
2023-01-23T19:21:23.409Z,7.65
2023-01-23T19:23:59.897Z,7.47
2023-01-23T19:26:32.293Z,7.95
2023-01-23T19:29:15.485Z,7.37
2023-01-23T19:32:03.415Z,7.30
2023-01-23T19:34:32.520Z,8.02
2023-01-23T19:37:01.167Z,8.02
2023-01-23T19:39:29.584Z,7.78
2023-01-23T19:41:59.912Z,7.43
2023-01-23T19:44:29.966Z,7.75
2023-01-23T19:46:58.075Z,8.68
2023-01-23T19:49:26.417Z,7.10
2023-01-23T19:51:54.701Z,7.78
2023-01-23T19:54:24.343Z,8.23
2023-01-23T19:56:52.910Z,7.85
2023-01-23T19:59:23.838Z,7.18
2023-01-23T20:01:53.843Z,7.35
2023-01-23T20:04:24.081Z,7.35
2023-01-23T20:06:52.830Z,8.52
2023-01-23T20:09:21.865Z,8.77
2023-01-23T20:11:52.180Z,7.85
2023-01-23T20:14:22.199Z,7.75
2023-01-23T20:16:51.911Z,7.72
2023-01-23T20:19:20.062Z,7.75
2023-01-23T20:21:48.740Z,7.37
2023-01-23T20:24:18.014Z,7.47
2023-01-23T20:26:47.135Z,8.05
2023-01-23T20:29:15.525Z,9.10
2023-01-23T20:31:43.861Z,7.40
2023-01-23T20:34:13.604Z,9.05
2023-01-23T20:36:41.885Z,8.07
2023-01-23T20:39:12.327Z,8.10
2023-01-23T20:41:40.565Z,7.80
2023-01-23T20:44:08.540Z,7.47
2023-01-23T20:46:36.821Z,9.52
2023-01-23T20:49:05.115Z,8.95
2023-01-23T20:51:34.824Z,7.12
2023-01-23T20:54:02.397Z,8.18
2023-01-23T20:56:30.675Z,7.75
2023-01-23T20:59:16.273Z,7.28
2023-01-23T21:02:11.663Z,7.12
2023-01-23T21:04:40.462Z,7.00
2023-01-23T21:07:10.208Z,8.35
2023-01-23T21:09:38.300Z,8.00
2023-01-23T21:12:07.152Z,7.07
2023-01-23T21:14:35.956Z,8.02
2023-01-23T21:17:05.374Z,7.15
2023-01-23T21:19:33.891Z,9.63
2023-01-23T21:22:02.462Z,7.80
2023-01-23T21:24:34.360Z,7.93
2023-01-23T21:27:03.486Z,7.68
2023-01-23T21:29:32.338Z,8.45
2023-01-23T21:32:01.205Z,7.40
2023-01-23T21:34:29.771Z,7.10
2023-01-23T21:36:58.159Z,7.95
2023-01-23T21:39:26.357Z,6.87
2023-01-23T21:41:55.936Z,8.10
2023-01-23T21:44:24.133Z,7.65
2023-01-23T21:46:52.118Z,7.03
2023-01-23T21:49:20.567Z,7.18
2023-01-23T21:51:48.634Z,7.85
2023-01-23T21:54:17.279Z,8.02
2023-01-23T21:56:45.607Z,7.28
2023-01-23T21:59:15.080Z,6.15
2023-01-23T22:01:42.872Z,6.75
2023-01-23T22:04:12.813Z,7.65
2023-01-23T22:06:43.083Z,6.70
2023-01-23T22:09:14.811Z,7.32
2023-01-23T22:11:42.975Z,6.90
2023-01-23T22:14:11.519Z,6.32
2023-01-23T22:16:48.369Z,6.70
2023-01-23T22:19:19.792Z,7.20
2023-01-23T22:21:48.311Z,7.43
2023-01-23T22:24:16.528Z,7.40
2023-01-23T22:26:44.969Z,6.90
2023-01-23T22:29:13.891Z,8.10
2023-01-23T22:31:43.362Z,6.12
2023-01-23T22:34:14.245Z,7.35
2023-01-23T22:36:42.276Z,6.70
2023-01-23T22:39:13.238Z,6.25
2023-01-23T22:41:41.509Z,6.87
2023-01-23T22:44:09.604Z,7.65
2023-01-23T22:46:37.652Z,6.85
2023-01-23T22:49:07.518Z,6.37
2023-01-23T22:51:35.566Z,7.70
2023-01-23T22:54:05.996Z,7.30
2023-01-23T22:56:34.390Z,8.02
2023-01-23T22:59:03.193Z,6.97
2023-01-23T23:01:31.472Z,6.40
2023-01-23T23:04:21.128Z,6.45
2023-01-23T23:06:49.130Z,6.93
2023-01-23T23:09:17.469Z,6.87
2023-01-23T23:11:47.422Z,5.80
2023-01-23T23:14:15.354Z,5.80
2023-01-23T23:16:43.607Z,7.00
2023-01-23T23:19:12.011Z,6.62
2023-01-23T23:21:42.755Z,6.12
2023-01-23T23:24:14.191Z,6.95
2023-01-23T23:26:42.602Z,7.05
2023-01-23T23:29:11.017Z,5.28
2023-01-23T23:31:39.279Z,7.22
2023-01-23T23:34:07.373Z,7.57
2023-01-23T23:36:36.221Z,5.85
2023-01-23T23:39:05.766Z,6.60
2023-01-23T23:41:33.862Z,5.80
2023-01-23T23:44:02.301Z,6.35
2023-01-23T23:46:30.240Z,6.68
2023-01-23T23:48:58.431Z,6.07
2023-01-23T23:51:27.365Z,6.40
2023-01-23T23:53:55.701Z,6.20
2023-01-23T23:56:27.651Z,6.60
2023-01-23T23:58:56.959Z,7.32
